Time;durP1;ratioP1;P1;durP2;ratioP2;P2;SDS_P1;SDS_P2;PMS_P1;PMS_P2;Temp;Humidity;BMP_temperature;BMP_pressure;BME280_temperature;BME280_humidity;BME280_pressure;Samples;Min_cycle;Max_cycle;Signal;HPM_P1;HPM_P2
2023/11/24 00:01:06;;;;;;;17.03;4.20;;;;;;;9.22;100.00;101450.66;5110607;28;20043;-36
2023/11/24 00:03:32;;;;;;;12.73;3.75;;;;;;;9.25;100.00;101455.66;5110766;28;20020;-35
2023/11/24 00:05:57;;;;;;;18.48;4.18;;;;;;;9.18;100.00;101444.03;5110772;28;20035;-36
2023/11/24 00:08:22;;;;;;;13.55;4.43;;;;;;;9.24;100.00;101464.78;5101018;28;20406;-35
2023/11/24 00:10:48;;;;;;;16.57;3.63;;;;;;;9.14;100.00;101449.00;5096938;28;20496;-35
2023/11/24 00:13:13;;;;;;;13.03;3.13;;;;;;;9.21;100.00;101459.78;5097052;28;20278;-35
2023/11/24 00:15:42;;;;;;;18.35;3.95;;;;;;;9.17;100.00;101459.38;5097214;28;20073;-35
2023/11/24 00:18:08;;;;;;;14.70;3.92;;;;;;;9.15;100.00;101455.22;5096377;28;20028;-35
2023/11/24 00:20:34;;;;;;;13.15;3.45;;;;;;;9.14;100.00;101459.78;5096104;28;20032;-35
2023/11/24 00:22:59;;;;;;;16.30;3.60;;;;;;;9.07;100.00;101448.16;5096468;28;20145;-35
2023/11/24 00:25:25;;;;;;;20.63;4.65;;;;;;;9.09;100.00;101483.03;5096063;28;20460;-35
2023/11/24 00:27:51;;;;;;;16.37;4.03;;;;;;;9.05;100.00;101476.38;5096742;28;20020;-36
2023/11/24 00:30:17;;;;;;;;;;;;;;;9.11;100.00;101479.09;5096942;28;20019;-36
2023/11/24 00:32:44;;;;;;;12.13;3.30;;;;;;;9.05;100.00;101477.22;5096122;28;19904;-35
2023/11/24 00:35:10;;;;;;;14.15;3.50;;;;;;;9.03;100.00;101482.81;5096619;28;20024;-36
2023/11/24 00:37:36;;;;;;;17.85;4.03;;;;;;;9.02;100.00;101469.53;5096817;28;20351;-35
2023/11/24 00:40:07;;;;;;;14.60;3.47;;;;;;;8.95;100.00;101466.81;5096849;28;20020;-36
2023/11/24 00:42:35;;;;;;;18.48;4.13;;;;;;;8.99;100.00;101489.66;5096817;28;20034;-35
2023/11/24 00:45:02;;;;;;;17.00;4.25;;;;;;;8.90;100.00;101488.19;5095875;28;20024;-35
2023/11/24 00:47:27;;;;;;;14.88;3.50;;;;;;;8.90;100.00;101508.94;5096384;28;20122;-35
2023/11/24 00:49:54;;;;;;;12.10;3.13;;;;;;;8.72;100.00;101504.09;5095822;28;20495;-35
2023/11/24 00:52:19;;;;;;;13.43;3.50;;;;;;;8.71;100.00;101511.38;5095731;28;20099;-35
2023/11/24 00:54:45;;;;;;;9.77;2.47;;;;;;;8.67;100.00;101506.56;5095691;28;20108;-35
2023/11/24 00:57:10;;;;;;;10.43;2.63;;;;;;;8.57;100.00;101506.97;5095665;28;20066;-35
2023/11/24 00:59:36;;;;;;;8.57;3.70;;;;;;;8.48;100.00;101490.13;5095930;28;20024;-35
2023/11/24 01:02:01;;;;;;;5.78;1.75;;;;;;;8.50;100.00;101498.84;5095863;28;20098;-35
2023/11/24 01:04:27;;;;;;;7.27;2.23;;;;;;;8.45;100.00;101495.09;5095594;28;20020;-35
2023/11/24 01:06:52;;;;;;;8.82;1.90;;;;;;;8.42;100.00;101493.63;5095751;28;20107;-35
2023/11/24 01:09:17;;;;;;;6.70;1.77;;;;;;;8.35;100.00;101479.28;5095702;28;20016;-35
2023/11/24 01:11:43;;;;;;;9.30;2.10;;;;;;;8.32;100.00;101482.34;5095684;28;20024;-35
2023/11/24 01:14:08;;;;;;;5.40;1.67;;;;;;;8.32;100.00;101490.44;5095669;28;20648;-35
2023/11/24 01:16:33;;;;;;;7.97;2.40;;;;;;;8.29;100.00;101480.06;5095818;28;20456;-35
2023/11/24 01:19:00;;;;;;;5.27;1.53;;;;;;;8.26;100.00;101481.31;5094616;28;20353;-35
2023/11/24 01:21:25;;;;;;;7.70;2.08;;;;;;;8.23;100.00;101479.00;5095765;28;20020;-35
2023/11/24 01:23:51;;;;;;;4.67;1.17;;;;;;;8.24;100.00;101482.53;5095202;28;20027;-35
2023/11/24 01:26:16;;;;;;;6.20;1.83;;;;;;;8.21;100.00;101474.84;5095457;28;20815;-35
2023/11/24 01:28:42;;;;;;;4.50;1.20;;;;;;;8.18;100.00;101481.47;5094761;28;20020;-35
2023/11/24 01:31:09;;;;;;;6.57;1.70;;;;;;;8.14;100.00;101472.09;5095056;28;20024;-35
2023/11/24 01:33:35;;;;;;;5.65;1.45;;;;;;;8.13;100.00;101469.63;5094965;28;20345;-35
2023/11/24 01:36:01;;;;;;;5.28;1.45;;;;;;;8.13;100.00;101462.38;5095181;28;20035;-35
2023/11/24 01:38:27;;;;;;;5.70;1.60;;;;;;;8.12;100.00;101459.88;5094590;28;20073;-36
2023/11/24 01:40:53;;;;;;;5.00;1.20;;;;;;;8.09;100.00;101471.03;5094833;28;20099;-35
2023/11/24 01:43:18;;;;;;;5.27;1.50;;;;;;;8.08;100.00;101469.38;5094476;28;20047;-35
2023/11/24 01:45:45;;;;;;;6.20;1.50;;;;;;;7.99;100.00;101455.25;5094577;28;20020;-35
2023/11/24 01:48:11;;;;;;;4.32;1.48;;;;;;;8.05;100.00;101470.59;5094612;28;20024;-35
2023/11/24 01:50:37;;;;;;;5.78;1.45;;;;;;;7.94;100.00;101463.09;5095449;28;20028;-35
2023/11/24 01:53:04;;;;;;;5.20;1.63;;;;;;;7.95;100.00;101471.00;5095077;28;20403;-35
2023/11/24 01:55:29;;;;;;;7.35;1.75;;;;;;;7.84;100.00;101457.22;5095074;28;20016;-35
2023/11/24 01:57:55;;;;;;;9.00;2.25;;;;;;;7.89;100.00;101474.47;5095360;28;20138;-35
2023/11/24 02:00:21;;;;;;;7.60;1.70;;;;;;;7.89;100.00;101482.53;5094361;28;20376;-35
2023/11/24 02:02:46;;;;;;;8.07;2.42;;;;;;;7.89;100.00;101487.09;5094498;28;20484;-35
2023/11/24 02:05:12;;;;;;;8.87;1.80;;;;;;;7.80;100.00;101483.72;5095209;28;20123;-35
2023/11/24 02:07:37;;;;;;;6.07;1.60;;;;;;;7.82;100.00;101505.09;5094293;28;20335;-35
2023/11/24 02:10:03;;;;;;;10.10;1.90;;;;;;;7.67;100.00;101491.72;5095169;28;20066;-35
2023/11/24 02:12:29;;;;;;;5.68;1.65;;;;;;;7.62;100.00;101499.56;5094629;28;20024;-35
2023/11/24 02:14:54;;;;;;;3.92;1.10;;;;;;;7.57;100.00;101478.59;5094476;28;20059;-35
2023/11/24 02:17:20;;;;;;;6.07;1.23;;;;;;;7.45;100.00;101464.84;5094209;28;20065;-35
2023/11/24 02:19:46;;;;;;;4.22;1.08;;;;;;;7.45;100.00;101472.09;5094158;28;20027;-35
2023/11/24 02:22:11;;;;;;;4.50;1.07;;;;;;;7.41;100.00;101473.50;5094987;28;20020;-35
2023/11/24 02:24:36;;;;;;;5.67;1.47;;;;;;;7.36;100.00;101468.69;5094131;28;20042;-35
2023/11/24 02:27:02;;;;;;;7.87;1.90;;;;;;;7.37;100.00;101478.44;5094441;28;20051;-35
2023/11/24 02:29:27;;;;;;;5.57;1.38;;;;;;;7.31;100.00;101475.69;5094264;28;20024;-35
2023/11/24 02:31:53;;;;;;;5.03;1.40;;;;;;;7.28;100.00;101476.91;5094067;28;20027;-35
2023/11/24 02:34:19;;;;;;;6.05;1.55;;;;;;;7.27;100.00;101486.03;5094756;28;20047;-35
2023/11/24 02:36:44;;;;;;;6.67;2.07;;;;;;;7.30;100.00;101490.16;5094396;28;20103;-35
2023/11/24 02:39:09;;;;;;;6.17;1.70;;;;;;;7.26;100.00;101481.66;5093646;28;20459;-35
2023/11/24 02:41:35;;;;;;;5.60;1.70;;;;;;;7.23;100.00;101465.91;5094159;28;20100;-35
2023/11/24 02:44:00;;;;;;;5.27;1.17;;;;;;;7.20;100.00;101452.84;5094070;28;20467;-35
2023/11/24 02:46:26;;;;;;;5.30;1.50;;;;;;;7.17;100.00;101446.00;5093541;28;20321;-35
2023/11/24 02:48:51;;;;;;;6.07;1.10;;;;;;;7.17;100.00;101450.53;5094210;28;20058;-35
2023/11/24 02:51:18;;;;;;;3.67;1.10;;;;;;;7.07;100.00;101428.50;5094109;28;20031;-35
2023/11/24 02:53:44;;;;;;;4.25;1.30;;;;;;;7.15;100.00;101420.31;5094471;28;20027;-35
2023/11/24 02:56:10;;;;;;;3.75;0.90;;;;;;;7.08;100.00;101408.69;5093689;28;20092;-35
2023/11/24 02:58:36;;;;;;;3.50;0.82;;;;;;;7.06;100.00;101400.78;5093645;28;20020;-35
2023/11/24 03:01:02;;;;;;;;;;;;;;;7.12;100.00;101389.25;5094890;28;20081;-35
2023/11/24 03:03:28;;;;;;;5.70;1.40;;;;;;;6.98;100.00;101379.44;5093897;28;19937;-35
2023/11/24 03:05:55;;;;;;;;;;;;;;;7.12;100.00;101391.09;5094580;28;20024;-35
2023/11/24 03:08:20;;;;;;;5.03;1.08;;;;;;;7.02;100.00;101380.69;5093127;28;20240;-35
2023/11/24 03:10:46;;;;;;;7.47;2.23;;;;;;;6.88;100.00;101354.72;5093573;28;20024;-35
2023/11/24 03:13:12;;;;;;;4.35;1.10;;;;;;;6.97;100.00;101375.88;5093432;28;20028;-35
2023/11/24 03:15:38;;;;;;;4.10;0.95;;;;;;;6.91;100.00;101359.72;5094242;28;20078;-35
2023/11/24 03:18:03;;;;;;;6.57;1.35;;;;;;;6.95;100.00;101372.56;5093426;28;20440;-35
2023/11/24 03:20:29;;;;;;;4.43;0.80;;;;;;;6.92;100.00;101361.38;5094210;28;20024;-35
2023/11/24 03:22:55;;;;;;;3.17;0.90;;;;;;;6.88;100.00;101362.78;5093349;28;20020;-35
2023/11/24 03:25:20;;;;;;;6.20;1.15;;;;;;;6.78;100.00;101357.72;5094176;28;20406;-35
2023/11/24 03:27:46;;;;;;;3.22;1.02;;;;;;;6.81;100.00;101362.72;5092962;28;20016;-35
2023/11/24 03:30:11;;;;;;;5.78;1.33;;;;;;;6.77;100.00;101356.06;5093584;28;20109;-35
2023/11/24 03:32:37;;;;;;;3.42;1.10;;;;;;;6.76;100.00;101359.78;5093822;28;20103;-35
2023/11/24 03:35:02;;;;;;;4.38;1.30;;;;;;;6.72;100.00;101353.13;5093808;28;20024;-35
2023/11/24 03:37:28;;;;;;;3.20;1.00;;;;;;;6.74;100.00;101359.16;5092814;28;20107;-35
2023/11/24 03:39:53;;;;;;;6.00;1.50;;;;;;;6.67;100.00;101355.56;5093231;28;20496;-35
2023/11/24 03:42:19;;;;;;;6.80;1.85;;;;;;;6.66;100.00;101359.28;5094197;28;20055;-35
2023/11/24 03:44:45;;;;;;;11.17;1.67;;;;;;;6.64;100.00;101347.91;5096799;28;20028;-35
2023/11/24 03:47:10;;;;;;;4.25;1.10;;;;;;;6.54;100.00;101344.69;5097264;28;20258;-35
2023/11/24 03:49:36;;;;;;;5.97;1.20;;;;;;;6.53;100.00;101343.03;5097025;28;20078;-35
2023/11/24 03:52:01;;;;;;;5.83;1.57;;;;;;;6.55;100.00;101351.75;5096643;28;20016;-35
2023/11/24 03:54:26;;;;;;;3.90;1.20;;;;;;;6.45;100.00;101338.63;5096589;28;20357;-35
2023/11/24 03:56:52;;;;;;;4.23;1.10;;;;;;;6.49;100.00;101345.28;5097102;28;20090;-35
2023/11/24 03:59:17;;;;;;;4.10;1.10;;;;;;;6.43;100.00;101343.34;5097096;28;20039;-35
2023/11/24 04:01:42;;;;;;;6.43;1.20;;;;;;;6.42;100.00;101347.88;5096494;28;20012;-35
2023/11/24 04:04:07;;;;;;;6.67;1.30;;;;;;;6.47;100.00;101357.25;5097282;28;20020;-35
2023/11/24 04:06:33;;;;;;;5.80;1.90;;;;;;;6.44;100.00;101348.56;5096489;28;20028;-35
2023/11/24 04:08:58;;;;;;;5.60;1.17;;;;;;;6.41;100.00;101356.16;5097218;28;20460;-35
2023/11/24 04:11:24;;;;;;;3.53;1.10;;;;;;;6.42;100.00;101352.44;5097159;28;20020;-35
2023/11/24 04:13:50;;;;;;;6.57;1.25;;;;;;;6.40;100.00;101354.50;5097060;28;20024;-35
2023/11/24 04:16:17;;;;;;;6.28;1.40;;;;;;;6.38;100.00;101354.66;5096996;28;20463;-35
2023/11/24 04:18:43;;;;;;;6.70;1.23;;;;;;;6.37;100.00;101347.63;5096644;28;20031;-35
2023/11/24 04:21:08;;;;;;;7.10;1.05;;;;;;;6.31;100.00;101343.03;5096118;28;20467;-35
2023/11/24 04:23:34;;;;;;;8.93;1.20;;;;;;;6.37;100.00;101344.94;5096014;28;20028;-35
2023/11/24 04:25:59;;;;;;;3.67;0.93;;;;;;;6.30;100.00;101336.00;5096321;28;20024;-35
2023/11/24 04:28:25;;;;;;;6.32;1.27;;;;;;;6.33;100.00;101337.47;5095900;28;20024;-35
2023/11/24 04:30:50;;;;;;;5.37;1.63;;;;;;;6.33;100.00;101348.19;5096296;28;20024;-35
2023/11/24 04:33:15;;;;;;;3.53;1.03;;;;;;;6.26;100.00;101348.16;5096132;28;20372;-35
2023/11/24 04:35:41;;;;;;;5.23;1.30;;;;;;;6.24;100.00;101333.22;5096580;28;20035;-35
2023/11/24 04:38:06;;;;;;;2.93;0.90;;;;;;;6.28;100.00;101343.41;5096151;28;20035;-35
2023/11/24 04:40:31;;;;;;;5.10;1.13;;;;;;;6.29;100.00;101339.69;5096007;28;20015;-35
2023/11/24 04:42:57;;;;;;;5.93;1.20;;;;;;;6.30;100.00;101329.81;5096259;28;20024;-35
2023/11/24 04:45:22;;;;;;;5.00;1.63;;;;;;;6.22;100.00;101322.69;5096512;28;20023;-35
2023/11/24 04:47:47;;;;;;;5.57;1.23;;;;;;;6.26;100.00;101313.22;5096670;28;20027;-35
2023/11/24 04:50:14;;;;;;;6.40;1.40;;;;;;;6.30;100.00;101322.56;5095851;28;20103;-35
2023/11/24 04:52:39;;;;;;;5.70;1.30;;;;;;;6.26;100.00;101296.28;5096361;28;20074;-35
2023/11/24 04:55:05;;;;;;;4.97;1.30;;;;;;;6.32;100.00;101307.09;5094947;28;20378;-35
2023/11/24 04:57:31;;;;;;;6.25;1.75;;;;;;;6.35;100.00;101308.56;5095463;28;20086;-35
2023/11/24 04:59:57;;;;;;;6.55;1.50;;;;;;;6.33;100.00;101308.75;5095619;28;20026;-35
2023/11/24 05:02:23;;;;;;;8.05;1.65;;;;;;;6.33;100.00;101303.38;5096151;28;20032;-35
2023/11/24 05:04:49;;;;;;;6.75;1.30;;;;;;;6.24;100.00;101285.72;5095488;28;20016;-35
2023/11/24 05:07:17;;;;;;;5.85;1.33;;;;;;;6.28;100.00;101295.06;5095756;28;20084;-35
2023/11/24 05:09:43;;;;;;;5.35;1.20;;;;;;;6.13;100.00;101272.81;5095362;28;20372;-35
2023/11/24 05:12:09;;;;;;;5.85;1.65;;;;;;;6.23;100.00;101292.13;5095967;28;20031;-35
2023/11/24 05:14:34;;;;;;;7.73;1.33;;;;;;;6.20;100.00;101295.22;5095610;28;20533;-35
2023/11/24 05:17:00;;;;;;;5.60;1.58;;;;;;;6.21;100.00;101291.50;5095782;28;20476;-35
2023/11/24 05:19:25;;;;;;;5.77;1.87;;;;;;;6.20;100.00;101289.84;5095208;28;20069;-35
2023/11/24 05:21:50;;;;;;;5.05;1.38;;;;;;;6.22;100.00;101297.69;5095234;28;20495;-35
2023/11/24 05:24:16;;;;;;;11.97;3.30;;;;;;;6.15;100.00;101273.47;5095425;28;20410;-35
2023/11/24 05:26:41;;;;;;;4.00;1.10;;;;;;;6.24;100.00;101291.09;5095394;28;20031;-35
2023/11/24 05:29:07;;;;;;;6.50;1.40;;;;;;;6.29;100.00;101302.09;5094764;28;20089;-36
2023/11/24 05:31:32;;;;;;;10.10;2.33;;;;;;;6.29;100.00;101302.09;5095326;28;20321;-36
2023/11/24 05:33:59;;;;;;;5.70;1.57;;;;;;;6.32;100.00;101285.59;5094956;28;20333;-35
2023/11/24 05:36:26;;;;;;;7.22;1.35;;;;;;;6.31;100.00;101289.31;5095681;28;20071;-35
2023/11/24 05:38:52;;;;;;;7.03;1.60;;;;;;;6.34;100.00;101290.75;5094466;28;20460;-35
2023/11/24 05:41:17;;;;;;;8.83;1.80;;;;;;;6.36;100.00;101286.88;5094833;28;20061;-35
2023/11/24 05:43:43;;;;;;;5.87;2.27;;;;;;;6.35;100.00;101285.22;5094777;28;20271;-35
2023/11/24 05:46:08;;;;;;;8.23;1.52;;;;;;;6.30;100.00;101278.78;5095625;28;20103;-35
2023/11/24 05:48:34;;;;;;;6.53;1.47;;;;;;;6.37;100.00;101285.84;5094643;28;20372;-35
2023/11/24 05:50:59;;;;;;;4.77;1.83;;;;;;;6.36;100.00;101281.50;5094705;28;20055;-35
2023/11/24 05:53:25;;;;;;;9.03;1.70;;;;;;;6.36;100.00;101273.44;5094632;28;20020;-35
2023/11/24 05:55:52;;;;;;;7.47;1.65;;;;;;;6.37;100.00;101271.59;5094723;28;20039;-35
2023/11/24 05:58:17;;;;;;;6.97;1.48;;;;;;;6.37;100.00;101277.78;5094226;28;20016;-35
2023/11/24 06:00:43;;;;;;;5.33;1.67;;;;;;;6.18;100.00;101249.72;5094198;28;20096;-35
2023/11/24 06:03:10;;;;;;;4.83;1.37;;;;;;;6.40;100.00;101290.03;5094434;28;20031;-35
2023/11/24 06:05:35;;;;;;;5.00;1.23;;;;;;;6.35;100.00;101271.78;5094220;28;20376;-35
2023/11/24 06:08:03;;;;;;;4.50;1.10;;;;;;;6.37;100.00;101272.41;5094043;28;20027;-35
2023/11/24 06:10:29;;;;;;;7.40;1.55;;;;;;;6.33;100.00;101278.38;5094696;28;20019;-35
2023/11/24 06:12:54;;;;;;;7.07;1.85;;;;;;;6.35;100.00;101293.28;5093881;28;20521;-35
2023/11/24 06:15:20;;;;;;;15.63;3.37;;;;;;;6.32;100.00;101296.34;5094550;28;20020;-35
2023/11/24 06:17:48;;;;;;;3.60;1.13;;;;;;;6.33;100.00;101294.47;5094181;28;20672;-35
2023/11/24 06:20:13;;;;;;;8.82;2.17;;;;;;;6.25;100.00;101316.94;5095035;28;20100;-35
2023/11/24 06:22:39;;;;;;;6.13;1.42;;;;;;;6.16;100.00;101284.00;5093831;28;20472;-35
2023/11/24 06:25:05;;;;;;;5.00;1.13;;;;;;;6.10;100.00;101273.19;5094588;28;20043;-35
2023/11/24 06:27:30;;;;;;;5.53;1.42;;;;;;;6.04;100.00;101268.56;5094590;28;20281;-35
2023/11/24 06:29:55;;;;;;;5.23;1.47;;;;;;;5.98;100.00;101261.28;5094080;28;20027;-35
2023/11/24 06:32:21;;;;;;;4.90;1.53;;;;;;;5.93;100.00;101260.00;5093122;28;20515;-35
2023/11/24 06:34:46;;;;;;;4.93;1.47;;;;;;;5.97;100.00;101270.38;5093937;28;20359;-35
2023/11/24 06:37:12;;;;;;;3.03;1.00;;;;;;;5.92;100.00;101261.03;5094346;28;20024;-35
2023/11/24 06:39:38;;;;;;;12.70;1.48;;;;;;;5.93;100.00;101262.69;5094647;28;20330;-35
2023/11/24 06:42:07;;;;;;;;;;;;;;;5.99;100.00;101262.94;5094019;28;20031;-35
2023/11/24 06:44:32;;;;;;;7.90;1.58;;;;;;;5.91;100.00;101250.47;5094562;28;19904;-35
2023/11/24 06:46:59;;;;;;;8.32;1.42;;;;;;;5.88;100.00;101267.75;5094326;28;20024;-35
2023/11/24 06:49:25;;;;;;;6.50;1.30;;;;;;;5.79;100.00;101274.25;5093699;28;20102;-35
2023/11/24 06:51:52;;;;;;;5.90;1.38;;;;;;;5.86;100.00;101293.97;5093420;28;20050;-35
2023/11/24 06:54:17;;;;;;;7.00;1.52;;;;;;;5.84;100.00;101287.94;5093660;28;20396;-35
2023/11/24 06:56:43;;;;;;;4.73;1.30;;;;;;;5.85;100.00;101273.50;5093964;28;20074;-35
2023/11/24 06:59:09;;;;;;;5.18;1.45;;;;;;;5.87;100.00;101265.28;5093567;28;20047;-35
2023/11/24 07:01:35;;;;;;;6.80;1.38;;;;;;;5.85;100.00;101278.03;5093596;28;20024;-35
2023/11/24 07:04:02;;;;;;;7.55;1.80;;;;;;;5.75;100.00;101251.50;5093515;28;20028;-35
2023/11/24 07:06:27;;;;;;;4.32;1.30;;;;;;;5.77;100.00;101276.31;5093521;28;20468;-35
2023/11/24 07:08:53;;;;;;;4.57;1.25;;;;;;;5.70;100.00;101251.25;5093581;28;20038;-35
2023/11/24 07:11:19;;;;;;;3.58;1.13;;;;;;;5.76;100.00;101271.97;5093146;28;20521;-35
2023/11/24 07:13:44;;;;;;;;;;;;;;;5.81;100.00;101274.94;5093901;28;20082;-35
2023/11/24 07:16:10;;;;;;;2.65;0.65;;;;;;;5.73;100.00;101263.47;5093374;28;19908;-35
2023/11/24 07:18:35;;;;;;;5.73;1.27;;;;;;;5.70;100.00;101261.97;5095544;28;20020;-35
2023/11/24 07:21:00;;;;;;;2.73;1.00;;;;;;;5.69;100.00;101258.47;5097602;28;20338;-35
2023/11/24 07:23:26;;;;;;;4.43;2.03;;;;;;;5.61;100.00;101244.31;5096201;28;20368;-35
2023/11/24 07:25:51;;;;;;;4.00;1.07;;;;;;;5.67;100.00;101257.84;5097083;28;20039;-35
2023/11/24 07:28:17;;;;;;;4.30;1.17;;;;;;;5.63;100.00;101258.41;5097862;28;20032;-35
2023/11/24 07:30:42;;;;;;;3.58;1.10;;;;;;;5.66;100.00;101260.69;5097850;28;20020;-35
2023/11/24 07:33:08;;;;;;;5.47;1.13;;;;;;;5.69;100.00;101271.88;5097043;28;20055;-35
2023/11/24 07:35:33;;;;;;;4.32;0.98;;;;;;;5.74;100.00;101270.50;5097303;28;20042;-35
2023/11/24 07:37:58;;;;;;;6.53;1.40;;;;;;;5.79;100.00;101271.59;5097195;28;20078;-35
2023/11/24 07:40:25;;;;;;;5.70;1.23;;;;;;;5.83;100.00;101282.78;5097512;28;20452;-35
2023/11/24 07:42:51;;;;;;;5.55;1.15;;;;;;;5.83;100.00;101280.94;5096815;28;20024;-35
2023/11/24 07:45:16;;;;;;;3.80;1.00;;;;;;;5.86;100.00;101275.19;5096867;28;20016;-35
2023/11/24 07:47:42;;;;;;;5.43;1.30;;;;;;;5.85;100.00;101284.25;5097114;28;20028;-35
2023/11/24 07:50:09;;;;;;;6.88;2.08;;;;;;;5.88;100.00;101302.66;5097314;28;20065;-35
2023/11/24 07:52:34;;;;;;;5.93;1.58;;;;;;;5.87;100.00;101316.28;5097528;28;20355;-35
2023/11/24 07:54:59;;;;;;;3.78;1.25;;;;;;;5.83;100.00;101288.97;5096932;28;20103;-35
2023/11/24 07:57:26;;;;;;;4.73;1.23;;;;;;;5.76;100.00;101289.91;5097514;28;20468;-35
2023/11/24 07:59:52;;;;;;;4.65;1.25;;;;;;;5.59;100.00;101257.94;5096548;28;20452;-35
2023/11/24 08:02:18;;;;;;;3.72;1.05;;;;;;;5.65;100.00;101275.13;5097135;28;20045;-35
2023/11/24 08:04:43;;;;;;;3.27;0.90;;;;;;;5.58;100.00;101266.19;5096770;28;20024;-35
2023/11/24 08:07:09;;;;;;;6.27;1.20;;;;;;;5.56;100.00;101263.69;5096831;28;20036;-35
2023/11/24 08:09:35;;;;;;;4.10;1.00;;;;;;;5.54;100.00;101262.22;5097115;28;20136;-35
2023/11/24 08:12:00;;;;;;;4.32;1.00;;;;;;;5.54;100.00;101259.53;5096989;28;20469;-34
2023/11/24 08:14:26;;;;;;;4.83;1.37;;;;;;;5.55;100.00;101256.66;5096559;28;20020;-35
2023/11/24 08:16:51;;;;;;;4.17;1.00;;;;;;;5.36;100.00;101220.50;5097066;28;20277;-35
2023/11/24 08:19:22;;;;;;;3.42;0.82;;;;;;;5.55;100.00;101245.09;5094998;28;20375;-35
2023/11/24 08:21:47;;;;;;;4.68;1.63;;;;;;;5.58;100.00;101244.72;5096159;28;20027;-35
2023/11/24 08:24:12;;;;;;;3.10;1.07;;;;;;;5.65;100.00;101245.63;5096417;28;20038;-35
2023/11/24 08:26:38;;;;;;;6.23;1.13;;;;;;;5.68;100.00;101229.16;5097231;28;20020;-35
2023/11/24 08:29:04;;;;;;;7.57;1.60;;;;;;;5.66;100.00;101226.66;5096315;28;20494;-35
2023/11/24 08:31:29;;;;;;;7.68;1.55;;;;;;;5.70;100.00;101248.56;5096891;28;20024;-35
2023/11/24 08:33:55;;;;;;;7.00;1.47;;;;;;;5.57;100.00;101249.25;5096276;28;20364;-35
2023/11/24 08:36:20;;;;;;;9.77;1.60;;;;;;;5.56;100.00;101254.78;5096149;28;20024;-35
2023/11/24 08:38:45;;;;;;;5.47;1.80;;;;;;;5.62;100.00;101256.75;5096707;28;20027;-35
2023/11/24 08:41:13;;;;;;;2.83;0.80;;;;;;;5.47;100.00;101235.31;5096374;28;20034;-35
2023/11/24 08:43:39;;;;;;;3.30;1.05;;;;;;;5.50;100.00;101236.78;5096297;28;20020;-35
2023/11/24 08:46:05;;;;;;;3.35;0.80;;;;;;;5.50;100.00;101239.44;5096572;28;20069;-35
2023/11/24 08:48:32;;;;;;;4.43;1.10;;;;;;;5.39;100.00;101228.19;5095887;28;20024;-35
2023/11/24 08:50:58;;;;;;;7.28;2.00;;;;;;;5.45;100.00;101226.59;5096689;28;20024;-35
2023/11/24 08:53:25;;;;;;;3.83;0.80;;;;;;;5.47;100.00;101211.16;5095841;28;20098;-35
2023/11/24 08:55:50;;;;;;;2.42;0.80;;;;;;;5.47;100.00;101210.34;5095981;28;20040;-35
2023/11/24 08:58:16;;;;;;;3.23;1.00;;;;;;;5.46;100.00;101216.69;5096037;28;20035;-35
2023/11/24 09:00:41;;;;;;;3.27;0.90;;;;;;;5.44;100.00;101214.22;5096310;28;20470;-35
2023/11/24 09:03:07;;;;;;;2.22;0.73;;;;;;;5.44;100.00;101206.19;5096189;28;20359;-35
2023/11/24 09:05:33;;;;;;;3.88;0.90;;;;;;;5.46;100.00;101204.13;5096451;28;20025;-35
2023/11/24 09:07:58;;;;;;;3.63;0.80;;;;;;;5.45;100.00;101217.72;5095236;28;20473;-35
2023/11/24 09:10:24;;;;;;;4.23;0.93;;;;;;;5.47;100.00;101221.06;5095527;28;20250;-35
2023/11/24 09:12:49;;;;;;;6.47;1.10;;;;;;;5.41;100.00;101206.53;5095152;28;20276;-35
2023/11/24 09:15:15;;;;;;;3.55;0.93;;;;;;;5.46;100.00;101219.38;5095800;28;20491;-35
2023/11/24 09:17:40;;;;;;;4.20;0.80;;;;;;;5.35;100.00;101215.34;5095247;28;20356;-35
2023/11/24 09:20:08;;;;;;;8.63;1.23;;;;;;;5.40;100.00;101227.16;5095918;28;20027;-35
2023/11/24 09:22:34;;;;;;;5.50;1.48;;;;;;;5.38;100.00;101241.78;5095835;28;20031;-35
2023/11/24 09:25:02;;;;;;;5.10;1.30;;;;;;;5.30;100.00;101232.00;5095180;28;20360;-35
2023/11/24 09:27:27;;;;;;;4.45;1.10;;;;;;;5.25;100.00;101212.13;5095142;28;20085;-35
2023/11/24 09:29:53;;;;;;;4.25;1.10;;;;;;;5.24;100.00;101205.09;5095150;28;20016;-35
2023/11/24 09:32:18;;;;;;;4.33;1.30;;;;;;;5.34;100.00;101211.84;5095418;28;20028;-35
2023/11/24 09:34:46;;;;;;;4.93;1.00;;;;;;;5.38;100.00;101212.28;5095336;28;20035;-35
2023/11/24 09:37:11;;;;;;;4.53;0.90;;;;;;;5.36;100.00;101193.69;5095474;28;20023;-35
2023/11/24 09:39:37;;;;;;;4.37;1.30;;;;;;;5.51;100.00;101212.44;5094441;28;20020;-35
2023/11/24 09:42:03;;;;;;;4.30;1.10;;;;;;;5.51;100.00;101204.38;5094554;28;20016;-35
2023/11/24 09:44:29;;;;;;;4.68;1.55;;;;;;;5.54;100.00;101201.34;5095333;28;20456;-35
2023/11/24 09:46:56;;;;;;;4.45;1.25;;;;;;;5.53;100.00;101196.16;5095630;28;20023;-35
2023/11/24 09:49:24;;;;;;;3.92;2.17;;;;;;;5.65;100.00;101202.69;5095207;28;20330;-35
2023/11/24 09:51:50;;;;;;;3.33;0.98;;;;;;;5.71;100.00;101196.59;5094988;28;20360;-35
2023/11/24 09:54:17;;;;;;;4.07;1.10;;;;;;;5.74;100.00;101203.41;5094952;28;20024;-35
2023/11/24 09:56:43;;;;;;;5.85;1.17;;;;;;;5.74;100.00;101212.28;5095290;28;20123;-35
2023/11/24 09:59:09;;;;;;;;;;;;;;;5.81;100.00;101221.25;5094945;28;20024;-35
2023/11/24 10:01:38;;;;;;;6.70;1.50;;;;;;;5.72;100.00;101211.66;5094612;28;20007;-35
2023/11/24 10:04:05;;;;;;;6.03;1.60;;;;;;;5.80;100.00;101221.41;5094254;28;20573;-35
2023/11/24 10:06:38;;;;;;;5.95;1.40;;;;;;;5.86;100.00;101210.78;5094730;28;20051;-35
2023/11/24 10:09:05;;;;;;;6.03;1.33;;;;;;;5.96;100.00;101212.34;5094397;28;20023;-35
2023/11/24 10:11:33;;;;;;;6.05;1.55;;;;;;;6.05;100.00;101205.81;5094054;28;20024;-35
2023/11/24 10:13:59;;;;;;;5.82;1.40;;;;;;;6.00;100.00;101209.06;5093835;28;20403;-35
2023/11/24 10:16:25;;;;;;;5.60;1.63;;;;;;;6.05;100.00;101219.22;5094518;28;20118;-35
2023/11/24 10:18:51;;;;;;;3.45;1.27;;;;;;;6.02;100.00;101212.41;5093971;28;20055;-35
2023/11/24 10:21:18;;;;;;;4.45;1.00;;;;;;;5.97;100.00;101216.69;5094662;28;20024;-35
2023/11/24 10:23:44;;;;;;;6.20;1.50;;;;;;;5.93;100.00;101211.69;5094358;28;20012;-35
2023/11/24 10:26:13;;;;;;;6.57;1.52;;;;;;;5.92;100.00;101218.09;5094407;28;20370;-35
2023/11/24 10:28:40;;;;;;;6.43;1.60;;;;;;;5.80;100.00;101197.28;5094051;28;20016;-35
2023/11/24 10:31:07;;;;;;;;;;;;;;;6.00;100.00;101211.75;5095021;28;20356;-35
2023/11/24 10:33:32;;;;;;;;;;;;;;;6.02;100.00;101204.34;5094364;28;19903;-35
2023/11/24 10:35:58;;;;;;;5.07;1.23;;;;;;;5.92;100.00;101193.94;5093885;28;20367;-35
2023/11/24 10:38:27;;;;;;;;;;;;;;;6.10;100.00;101192.63;5094592;28;20024;-35
2023/11/24 10:40:54;;;;;;;6.50;1.00;;;;;;;6.16;100.00;101194.56;5093880;28;19958;-35
2023/11/24 10:43:20;;;;;;;5.30;1.40;;;;;;;6.28;100.00;101193.00;5093828;28;20102;-35
2023/11/24 10:45:50;;;;;;;4.28;1.60;;;;;;;6.35;100.00;101176.94;5094122;28;20510;-35
2023/11/24 10:48:20;;;;;;;3.88;1.48;;;;;;;6.40;100.00;101179.88;5093822;28;20028;-35
2023/11/24 10:51:30;;;;;;;8.43;1.67;;;;;;;6.50;100.00;101166.09;5093784;28;20016;-36
2023/11/24 10:53:56;;;;;;;6.38;1.88;;;;;;;6.54;100.00;101153.91;5088194;28;20058;-36
2023/11/24 10:56:22;;;;;;;5.25;1.70;;;;;;;6.62;100.00;101153.78;5094191;28;20368;-36
2023/11/24 10:58:54;;;;;;;10.18;1.90;;;;;;;6.62;100.00;101134.97;5093653;28;20032;-36
2023/11/24 11:01:23;;;;;;;8.85;2.53;;;;;;;6.68;100.00;101128.78;5094505;28;20151;-36
2023/11/24 11:03:57;;;;;;;5.13;1.55;;;;;;;6.88;100.00;101150.38;5094399;28;20061;-36
2023/11/24 11:06:43;;;;;;;8.35;2.05;;;;;;;7.01;100.00;101149.63;5094227;28;20035;-36
2023/11/24 11:12:19;;;;;;;7.32;1.50;;;;;;;7.03;100.00;101142.19;5093653;28;20066;-36
2023/11/24 11:14:46;;;;;;;5.45;1.30;;;;;;;6.68;100.00;101118.88;5094109;28;20069;-36
2023/11/24 11:17:17;;;;;;;5.85;1.15;;;;;;;6.64;100.00;101144.50;5093751;28;20024;-35
2023/11/24 11:20:12;;;;;;;7.55;1.35;;;;;;;6.51;100.00;101144.41;5093800;28;20027;-36
2023/11/24 11:22:39;;;;;;;6.90;1.85;;;;;;;6.41;100.00;101157.34;5093489;28;20035;-35
2023/11/24 11:25:23;;;;;;;3.33;1.10;;;;;;;6.19;100.00;101168.13;5093648;28;20107;-36